sensor_id;sensor_type;location;lat;lon;timestamp;P1;durP1;ratioP1;P2;durP2;ratioP2
56391;SDS011;42289;53.582;9.714;2022-10-31T00:01:50;35.85;;;21.92;;
56391;SDS011;42289;53.582;9.714;2022-10-31T00:04:16;32.75;;;21.02;;
56391;SDS011;42289;53.582;9.714;2022-10-31T00:06:45;41.55;;;22.90;;
56391;SDS011;42289;53.582;9.714;2022-10-31T00:09:22;38.47;;;22.40;;
56391;SDS011;42289;53.582;9.714;2022-10-31T00:11:53;37.63;;;22.55;;
56391;SDS011;42289;53.582;9.714;2022-10-31T00:14:31;40.10;;;20.90;;
56391;SDS011;42289;53.582;9.714;2022-10-31T00:17:03;37.70;;;22.63;;
56391;SDS011;42289;53.582;9.714;2022-10-31T00:19:29;36.53;;;21.70;;
56391;SDS011;42289;53.582;9.714;2022-10-31T00:22:06;39.72;;;22.98;;
56391;SDS011;42289;53.582;9.714;2022-10-31T00:24:37;38.40;;;23.05;;
56391;SDS011;42289;53.582;9.714;2022-10-31T00:27:10;43.95;;;24.08;;
56391;SDS011;42289;53.582;9.714;2022-10-31T00:29:41;40.40;;;23.52;;
56391;SDS011;42289;53.582;9.714;2022-10-31T00:32:07;47.63;;;23.42;;
56391;SDS011;42289;53.582;9.714;2022-10-31T00:34:36;43.55;;;23.92;;
56391;SDS011;42289;53.582;9.714;2022-10-31T00:37:09;45.83;;;24.85;;
56391;SDS011;42289;53.582;9.714;2022-10-31T00:39:47;46.42;;;24.95;;
56391;SDS011;42289;53.582;9.714;2022-10-31T00:42:17;47.25;;;25.13;;
56391;SDS011;42289;53.582;9.714;2022-10-31T00:44:47;43.25;;;25.00;;
56391;SDS011;42289;53.582;9.714;2022-10-31T00:47:13;46.35;;;25.45;;
56391;SDS011;42289;53.582;9.714;2022-10-31T00:49:42;47.38;;;26.45;;
56391;SDS011;42289;53.582;9.714;2022-10-31T00:52:08;44.92;;;25.90;;
56391;SDS011;42289;53.582;9.714;2022-10-31T00:54:35;48.22;;;26.67;;
56391;SDS011;42289;53.582;9.714;2022-10-31T00:57:02;49.53;;;27.52;;
56391;SDS011;42289;53.582;9.714;2022-10-31T00:59:29;49.15;;;27.23;;
56391;SDS011;42289;53.582;9.714;2022-10-31T01:01:55;59.28;;;29.55;;
56391;SDS011;42289;53.582;9.714;2022-10-31T01:04:22;49.60;;;27.00;;
56391;SDS011;42289;53.582;9.714;2022-10-31T01:06:48;52.55;;;28.33;;
56391;SDS011;42289;53.582;9.714;2022-10-31T01:09:15;51.90;;;28.27;;
56391;SDS011;42289;53.582;9.714;2022-10-31T01:11:41;59.45;;;28.52;;
56391;SDS011;42289;53.582;9.714;2022-10-31T01:14:09;62.60;;;29.35;;
56391;SDS011;42289;53.582;9.714;2022-10-31T01:16:36;59.55;;;30.58;;
56391;SDS011;42289;53.582;9.714;2022-10-31T01:19:02;55.00;;;29.35;;
56391;SDS011;42289;53.582;9.714;2022-10-31T01:21:29;57.85;;;30.65;;
56391;SDS011;42289;53.582;9.714;2022-10-31T01:23:55;52.75;;;28.10;;
56391;SDS011;42289;53.582;9.714;2022-10-31T01:26:23;61.25;;;29.55;;
56391;SDS011;42289;53.582;9.714;2022-10-31T01:28:51;59.15;;;30.30;;
56391;SDS011;42289;53.582;9.714;2022-10-31T01:31:21;59.97;;;31.02;;
56391;SDS011;42289;53.582;9.714;2022-10-31T01:33:49;60.67;;;30.77;;
56391;SDS011;42289;53.582;9.714;2022-10-31T01:36:17;59.28;;;28.60;;
56391;SDS011;42289;53.582;9.714;2022-10-31T01:38:45;57.08;;;30.08;;
56391;SDS011;42289;53.582;9.714;2022-10-31T01:41:13;68.00;;;31.60;;
56391;SDS011;42289;53.582;9.714;2022-10-31T01:43:44;65.05;;;30.25;;
56391;SDS011;42289;53.582;9.714;2022-10-31T01:46:12;66.70;;;32.42;;
56391;SDS011;42289;53.582;9.714;2022-10-31T01:48:40;65.53;;;33.30;;
56391;SDS011;42289;53.582;9.714;2022-10-31T01:51:07;68.72;;;33.53;;
56391;SDS011;42289;53.582;9.714;2022-10-31T01:53:36;75.72;;;34.10;;
56391;SDS011;42289;53.582;9.714;2022-10-31T01:56:03;73.70;;;35.60;;
56391;SDS011;42289;53.582;9.714;2022-10-31T01:58:30;75.93;;;36.20;;
56391;SDS011;42289;53.582;9.714;2022-10-31T02:00:58;80.13;;;36.50;;
56391;SDS011;42289;53.582;9.714;2022-10-31T02:03:26;81.78;;;37.92;;
56391;SDS011;42289;53.582;9.714;2022-10-31T02:05:55;81.70;;;36.78;;
56391;SDS011;42289;53.582;9.714;2022-10-31T02:08:25;80.93;;;36.33;;
56391;SDS011;42289;53.582;9.714;2022-10-31T02:10:53;73.72;;;35.30;;
56391;SDS011;42289;53.582;9.714;2022-10-31T02:13:26;69.18;;;34.45;;
56391;SDS011;42289;53.582;9.714;2022-10-31T02:18:23;82.97;;;36.15;;
56391;SDS011;42289;53.582;9.714;2022-10-31T02:20:57;77.57;;;35.28;;
56391;SDS011;42289;53.582;9.714;2022-10-31T02:26:32;80.07;;;35.22;;
56391;SDS011;42289;53.582;9.714;2022-10-31T02:29:47;74.38;;;34.33;;
56391;SDS011;42289;53.582;9.714;2022-10-31T02:32:40;78.13;;;35.05;;
56391;SDS011;42289;53.582;9.714;2022-10-31T02:35:25;73.80;;;34.80;;
56391;SDS011;42289;53.582;9.714;2022-10-31T02:38:04;79.70;;;35.05;;
56391;SDS011;42289;53.582;9.714;2022-10-31T02:40:43;64.97;;;31.80;;
56391;SDS011;42289;53.582;9.714;2022-10-31T02:43:58;66.90;;;33.47;;
56391;SDS011;42289;53.582;9.714;2022-10-31T02:50:13;73.68;;;32.42;;
56391;SDS011;42289;53.582;9.714;2022-10-31T02:52:49;66.50;;;32.92;;
56391;SDS011;42289;53.582;9.714;2022-10-31T02:58:11;67.25;;;32.63;;
56391;SDS011;42289;53.582;9.714;2022-10-31T03:00:41;72.57;;;34.30;;
56391;SDS011;42289;53.582;9.714;2022-10-31T03:03:14;72.30;;;32.45;;
56391;SDS011;42289;53.582;9.714;2022-10-31T03:05:52;76.05;;;32.95;;
56391;SDS011;42289;53.582;9.714;2022-10-31T03:08:27;68.20;;;32.60;;
56391;SDS011;42289;53.582;9.714;2022-10-31T03:10:59;66.88;;;33.15;;
56391;SDS011;42289;53.582;9.714;2022-10-31T03:13:30;69.40;;;32.45;;
56391;SDS011;42289;53.582;9.714;2022-10-31T03:16:02;66.50;;;32.28;;
56391;SDS011;42289;53.582;9.714;2022-10-31T03:18:39;70.57;;;31.85;;
56391;SDS011;42289;53.582;9.714;2022-10-31T03:21:11;69.70;;;32.22;;
56391;SDS011;42289;53.582;9.714;2022-10-31T03:23:40;71.68;;;32.67;;
56391;SDS011;42289;53.582;9.714;2022-10-31T03:26:10;72.50;;;32.95;;
56391;SDS011;42289;53.582;9.714;2022-10-31T03:28:41;76.63;;;35.45;;
56391;SDS011;42289;53.582;9.714;2022-10-31T03:31:12;71.70;;;30.65;;
56391;SDS011;42289;53.582;9.714;2022-10-31T03:33:42;67.95;;;31.55;;
56391;SDS011;42289;53.582;9.714;2022-10-31T03:36:12;67.50;;;32.75;;
56391;SDS011;42289;53.582;9.714;2022-10-31T03:38:42;64.45;;;31.67;;
56391;SDS011;42289;53.582;9.714;2022-10-31T03:41:13;75.40;;;33.30;;
56391;SDS011;42289;53.582;9.714;2022-10-31T03:43:42;73.03;;;33.03;;
56391;SDS011;42289;53.582;9.714;2022-10-31T03:46:18;77.50;;;34.22;;
56391;SDS011;42289;53.582;9.714;2022-10-31T03:48:45;73.55;;;33.20;;
56391;SDS011;42289;53.582;9.714;2022-10-31T03:51:14;74.82;;;33.80;;
56391;SDS011;42289;53.582;9.714;2022-10-31T03:53:47;76.90;;;34.40;;
56391;SDS011;42289;53.582;9.714;2022-10-31T03:56:22;78.70;;;34.78;;
56391;SDS011;42289;53.582;9.714;2022-10-31T03:58:57;78.80;;;33.97;;
56391;SDS011;42289;53.582;9.714;2022-10-31T04:01:27;77.05;;;35.42;;
56391;SDS011;42289;53.582;9.714;2022-10-31T04:03:57;73.63;;;33.60;;
56391;SDS011;42289;53.582;9.714;2022-10-31T04:06:26;70.82;;;33.42;;
56391;SDS011;42289;53.582;9.714;2022-10-31T04:08:54;88.25;;;36.25;;
56391;SDS011;42289;53.582;9.714;2022-10-31T04:11:26;83.35;;;36.10;;
56391;SDS011;42289;53.582;9.714;2022-10-31T04:13:55;86.63;;;36.97;;
56391;SDS011;42289;53.582;9.714;2022-10-31T04:16:24;90.43;;;38.33;;
56391;SDS011;42289;53.582;9.714;2022-10-31T04:18:52;93.70;;;37.88;;
56391;SDS011;42289;53.582;9.714;2022-10-31T04:21:19;92.93;;;40.00;;
56391;SDS011;42289;53.582;9.714;2022-10-31T04:23:46;92.95;;;38.78;;
56391;SDS011;42289;53.582;9.714;2022-10-31T04:26:13;93.75;;;36.65;;
56391;SDS011;42289;53.582;9.714;2022-10-31T04:28:39;92.82;;;37.08;;
56391;SDS011;42289;53.582;9.714;2022-10-31T04:31:06;106.07;;;40.00;;
56391;SDS011;42289;53.582;9.714;2022-10-31T04:33:32;100.78;;;37.70;;
56391;SDS011;42289;53.582;9.714;2022-10-31T04:35:58;91.90;;;36.92;;
56391;SDS011;42289;53.582;9.714;2022-10-31T04:38:27;105.90;;;38.83;;
56391;SDS011;42289;53.582;9.714;2022-10-31T04:40:55;117.72;;;38.00;;
56391;SDS011;42289;53.582;9.714;2022-10-31T04:43:22;95.22;;;37.22;;
56391;SDS011;42289;53.582;9.714;2022-10-31T04:45:48;146.25;;;39.42;;
56391;SDS011;42289;53.582;9.714;2022-10-31T04:48:15;148.85;;;39.47;;
56391;SDS011;42289;53.582;9.714;2022-10-31T04:50:42;126.40;;;38.00;;
56391;SDS011;42289;53.582;9.714;2022-10-31T04:53:09;166.60;;;39.50;;
56391;SDS011;42289;53.582;9.714;2022-10-31T04:55:35;121.75;;;36.58;;
56391;SDS011;42289;53.582;9.714;2022-10-31T04:58:03;149.77;;;38.33;;
56391;SDS011;42289;53.582;9.714;2022-10-31T05:00:29;114.35;;;35.95;;
56391;SDS011;42289;53.582;9.714;2022-10-31T05:02:56;117.25;;;36.03;;
56391;SDS011;42289;53.582;9.714;2022-10-31T05:05:24;140.75;;;35.00;;
56391;SDS011;42289;53.582;9.714;2022-10-31T05:07:52;164.60;;;37.92;;
56391;SDS011;42289;53.582;9.714;2022-10-31T05:10:19;244.40;;;41.28;;
56391;SDS011;42289;53.582;9.714;2022-10-31T05:12:47;202.73;;;39.80;;
56391;SDS011;42289;53.582;9.714;2022-10-31T05:15:16;164.70;;;36.88;;
56391;SDS011;42289;53.582;9.714;2022-10-31T05:17:43;193.02;;;39.05;;
56391;SDS011;42289;53.582;9.714;2022-10-31T05:20:10;161.20;;;37.28;;
56391;SDS011;42289;53.582;9.714;2022-10-31T05:22:36;137.18;;;37.55;;
56391;SDS011;42289;53.582;9.714;2022-10-31T05:25:03;153.27;;;36.53;;
56391;SDS011;42289;53.582;9.714;2022-10-31T05:27:29;228.88;;;41.15;;
56391;SDS011;42289;53.582;9.714;2022-10-31T05:29:56;132.30;;;37.28;;
56391;SDS011;42289;53.582;9.714;2022-10-31T05:32:23;120.95;;;36.67;;
56391;SDS011;42289;53.582;9.714;2022-10-31T05:34:50;115.97;;;36.33;;
56391;SDS011;42289;53.582;9.714;2022-10-31T05:37:16;203.52;;;38.95;;
56391;SDS011;42289;53.582;9.714;2022-10-31T05:39:43;174.98;;;38.75;;
56391;SDS011;42289;53.582;9.714;2022-10-31T05:42:09;157.60;;;38.08;;
56391;SDS011;42289;53.582;9.714;2022-10-31T05:44:35;145.48;;;37.95;;
56391;SDS011;42289;53.582;9.714;2022-10-31T05:47:02;114.97;;;36.92;;
56391;SDS011;42289;53.582;9.714;2022-10-31T05:49:29;120.22;;;35.75;;
56391;SDS011;42289;53.582;9.714;2022-10-31T05:51:56;183.05;;;39.22;;
56391;SDS011;42289;53.582;9.714;2022-10-31T05:54:23;172.55;;;40.67;;
56391;SDS011;42289;53.582;9.714;2022-10-31T05:56:49;132.05;;;37.28;;
56391;SDS011;42289;53.582;9.714;2022-10-31T05:59:15;143.77;;;38.25;;
56391;SDS011;42289;53.582;9.714;2022-10-31T06:01:42;129.73;;;37.55;;
56391;SDS011;42289;53.582;9.714;2022-10-31T06:04:08;117.35;;;36.67;;
56391;SDS011;42289;53.582;9.714;2022-10-31T06:06:36;132.63;;;37.28;;
56391;SDS011;42289;53.582;9.714;2022-10-31T06:09:02;139.82;;;35.10;;
56391;SDS011;42289;53.582;9.714;2022-10-31T06:11:29;165.90;;;35.78;;
56391;SDS011;42289;53.582;9.714;2022-10-31T06:13:55;138.93;;;32.97;;
56391;SDS011;42289;53.582;9.714;2022-10-31T06:16:21;140.90;;;35.15;;
56391;SDS011;42289;53.582;9.714;2022-10-31T06:18:48;111.72;;;31.73;;
56391;SDS011;42289;53.582;9.714;2022-10-31T06:21:14;116.05;;;34.28;;
56391;SDS011;42289;53.582;9.714;2022-10-31T06:23:42;93.15;;;32.05;;
56391;SDS011;42289;53.582;9.714;2022-10-31T06:26:08;95.00;;;33.00;;
56391;SDS011;42289;53.582;9.714;2022-10-31T06:28:35;79.00;;;32.78;;
56391;SDS011;42289;53.582;9.714;2022-10-31T06:31:01;85.25;;;32.63;;
56391;SDS011;42289;53.582;9.714;2022-10-31T06:33:28;93.45;;;34.17;;
56391;SDS011;42289;53.582;9.714;2022-10-31T06:35:54;79.85;;;33.22;;
56391;SDS011;42289;53.582;9.714;2022-10-31T06:38:20;177.80;;;35.05;;
56391;SDS011;42289;53.582;9.714;2022-10-31T06:40:48;140.80;;;33.85;;
56391;SDS011;42289;53.582;9.714;2022-10-31T06:43:15;103.45;;;31.08;;
56391;SDS011;42289;53.582;9.714;2022-10-31T06:45:41;116.20;;;31.90;;
56391;SDS011;42289;53.582;9.714;2022-10-31T06:48:07;133.93;;;33.22;;
56391;SDS011;42289;53.582;9.714;2022-10-31T06:50:34;173.15;;;34.88;;
56391;SDS011;42289;53.582;9.714;2022-10-31T06:53:00;206.38;;;35.28;;
56391;SDS011;42289;53.582;9.714;2022-10-31T06:55:27;240.68;;;35.63;;
56391;SDS011;42289;53.582;9.714;2022-10-31T06:57:55;203.27;;;33.33;;
56391;SDS011;42289;53.582;9.714;2022-10-31T07:00:24;183.00;;;33.03;;
56391;SDS011;42289;53.582;9.714;2022-10-31T07:02:54;231.43;;;35.20;;
56391;SDS011;42289;53.582;9.714;2022-10-31T07:05:21;151.60;;;31.10;;
56391;SDS011;42289;53.582;9.714;2022-10-31T07:07:51;138.80;;;29.45;;
56391;SDS011;42289;53.582;9.714;2022-10-31T07:10:18;204.32;;;34.17;;
56391;SDS011;42289;53.582;9.714;2022-10-31T07:12:44;138.20;;;30.38;;
56391;SDS011;42289;53.582;9.714;2022-10-31T07:15:12;172.02;;;29.70;;
56391;SDS011;42289;53.582;9.714;2022-10-31T07:17:38;129.82;;;30.25;;
56391;SDS011;42289;53.582;9.714;2022-10-31T07:20:05;211.98;;;33.58;;
56391;SDS011;42289;53.582;9.714;2022-10-31T07:22:33;236.68;;;33.63;;
56391;SDS011;42289;53.582;9.714;2022-10-31T07:24:59;179.13;;;31.10;;
56391;SDS011;42289;53.582;9.714;2022-10-31T07:27:35;145.65;;;26.92;;
56391;SDS011;42289;53.582;9.714;2022-10-31T07:30:03;153.38;;;29.15;;
56391;SDS011;42289;53.582;9.714;2022-10-31T07:32:38;132.38;;;26.75;;
56391;SDS011;42289;53.582;9.714;2022-10-31T07:35:05;258.98;;;35.53;;
56391;SDS011;42289;53.582;9.714;2022-10-31T07:37:32;222.43;;;31.60;;
56391;SDS011;42289;53.582;9.714;2022-10-31T07:39:58;209.43;;;31.88;;
56391;SDS011;42289;53.582;9.714;2022-10-31T07:42:25;180.93;;;29.88;;
56391;SDS011;42289;53.582;9.714;2022-10-31T07:44:51;113.93;;;28.50;;
56391;SDS011;42289;53.582;9.714;2022-10-31T07:47:18;163.95;;;30.05;;
56391;SDS011;42289;53.582;9.714;2022-10-31T07:49:45;185.70;;;30.90;;
56391;SDS011;42289;53.582;9.714;2022-10-31T07:52:12;125.03;;;29.27;;
56391;SDS011;42289;53.582;9.714;2022-10-31T07:54:38;104.43;;;28.15;;
56391;SDS011;42289;53.582;9.714;2022-10-31T07:57:05;84.22;;;26.42;;
56391;SDS011;42289;53.582;9.714;2022-10-31T07:59:31;147.00;;;30.27;;
56391;SDS011;42289;53.582;9.714;2022-10-31T08:01:57;102.07;;;27.80;;
56391;SDS011;42289;53.582;9.714;2022-10-31T08:04:24;133.82;;;29.77;;
56391;SDS011;42289;53.582;9.714;2022-10-31T08:06:51;137.30;;;28.52;;
56391;SDS011;42289;53.582;9.714;2022-10-31T08:09:18;125.88;;;29.55;;
56391;SDS011;42289;53.582;9.714;2022-10-31T08:11:44;94.18;;;29.25;;
56391;SDS011;42289;53.582;9.714;2022-10-31T08:14:11;140.07;;;28.02;;
56391;SDS011;42289;53.582;9.714;2022-10-31T08:16:37;125.07;;;29.50;;
56391;SDS011;42289;53.582;9.714;2022-10-31T08:19:03;136.73;;;27.55;;
56391;SDS011;42289;53.582;9.714;2022-10-31T08:21:30;194.65;;;30.25;;
56391;SDS011;42289;53.582;9.714;2022-10-31T08:23:57;134.95;;;28.27;;
56391;SDS011;42289;53.582;9.714;2022-10-31T08:26:24;107.03;;;25.83;;
56391;SDS011;42289;53.582;9.714;2022-10-31T08:28:50;121.78;;;26.98;;
56391;SDS011;42289;53.582;9.714;2022-10-31T08:31:19;90.07;;;26.58;;
56391;SDS011;42289;53.582;9.714;2022-10-31T08:33:46;128.65;;;27.00;;
56391;SDS011;42289;53.582;9.714;2022-10-31T08:36:12;169.60;;;27.95;;
56391;SDS011;42289;53.582;9.714;2022-10-31T08:38:38;151.93;;;27.02;;
56391;SDS011;42289;53.582;9.714;2022-10-31T08:41:06;178.82;;;28.67;;
56391;SDS011;42289;53.582;9.714;2022-10-31T08:43:33;96.28;;;28.52;;
56391;SDS011;42289;53.582;9.714;2022-10-31T08:45:59;172.80;;;31.35;;
56391;SDS011;42289;53.582;9.714;2022-10-31T08:48:26;164.38;;;27.10;;
56391;SDS011;42289;53.582;9.714;2022-10-31T08:50:55;106.72;;;24.80;;
56391;SDS011;42289;53.582;9.714;2022-10-31T08:53:23;128.05;;;25.92;;
56391;SDS011;42289;53.582;9.714;2022-10-31T08:55:49;86.93;;;25.77;;
56391;SDS011;42289;53.582;9.714;2022-10-31T08:58:18;80.72;;;25.67;;
56391;SDS011;42289;53.582;9.714;2022-10-31T09:00:46;88.30;;;26.15;;
56391;SDS011;42289;53.582;9.714;2022-10-31T09:03:14;95.22;;;27.13;;
56391;SDS011;42289;53.582;9.714;2022-10-31T09:05:42;114.10;;;26.73;;
56391;SDS011;42289;53.582;9.714;2022-10-31T09:08:09;72.65;;;24.65;;
56391;SDS011;42289;53.582;9.714;2022-10-31T09:10:36;70.93;;;24.80;;
56391;SDS011;42289;53.582;9.714;2022-10-31T09:13:04;81.68;;;24.60;;
56391;SDS011;42289;53.582;9.714;2022-10-31T09:15:33;63.30;;;23.83;;
56391;SDS011;42289;53.582;9.714;2022-10-31T09:18:01;71.97;;;23.88;;
56391;SDS011;42289;53.582;9.714;2022-10-31T09:20:27;57.58;;;23.35;;
56391;SDS011;42289;53.582;9.714;2022-10-31T09:22:55;44.08;;;21.23;;
56391;SDS011;42289;53.582;9.714;2022-10-31T09:25:22;53.90;;;23.67;;
56391;SDS011;42289;53.582;9.714;2022-10-31T09:27:55;58.38;;;24.63;;
56391;SDS011;42289;53.582;9.714;2022-10-31T09:30:23;75.15;;;23.95;;
56391;SDS011;42289;53.582;9.714;2022-10-31T09:32:55;51.10;;;22.30;;
56391;SDS011;42289;53.582;9.714;2022-10-31T09:35:22;54.42;;;22.75;;
56391;SDS011;42289;53.582;9.714;2022-10-31T09:37:53;45.70;;;23.35;;
56391;SDS011;42289;53.582;9.714;2022-10-31T09:40:20;47.75;;;22.83;;
56391;SDS011;42289;53.582;9.714;2022-10-31T09:42:51;47.40;;;23.58;;
56391;SDS011;42289;53.582;9.714;2022-10-31T09:45:26;53.70;;;21.67;;
56391;SDS011;42289;53.582;9.714;2022-10-31T09:48:01;51.20;;;22.35;;
56391;SDS011;42289;53.582;9.714;2022-10-31T09:50:39;41.70;;;21.42;;
56391;SDS011;42289;53.582;9.714;2022-10-31T09:53:09;47.25;;;23.83;;
56391;SDS011;42289;53.582;9.714;2022-10-31T09:55:49;55.05;;;23.45;;
56391;SDS011;42289;53.582;9.714;2022-10-31T09:58:18;46.25;;;22.17;;
56391;SDS011;42289;53.582;9.714;2022-10-31T10:00:47;44.55;;;21.80;;
56391;SDS011;42289;53.582;9.714;2022-10-31T10:03:19;62.70;;;23.52;;
56391;SDS011;42289;53.582;9.714;2022-10-31T10:05:54;53.92;;;23.30;;
56391;SDS011;42289;53.582;9.714;2022-10-31T10:08:28;51.03;;;24.15;;
56391;SDS011;42289;53.582;9.714;2022-10-31T10:10:59;54.55;;;23.52;;
56391;SDS011;42289;53.582;9.714;2022-10-31T10:13:39;51.88;;;22.77;;
56391;SDS011;42289;53.582;9.714;2022-10-31T10:16:21;54.08;;;24.35;;
56391;SDS011;42289;53.582;9.714;2022-10-31T10:19:02;56.97;;;24.65;;
56391;SDS011;42289;53.582;9.714;2022-10-31T10:21:39;55.80;;;22.95;;
56391;SDS011;42289;53.582;9.714;2022-10-31T10:24:23;49.90;;;24.15;;
56391;SDS011;42289;53.582;9.714;2022-10-31T10:27:01;66.80;;;24.02;;
56391;SDS011;42289;53.582;9.714;2022-10-31T10:29:37;60.90;;;23.35;;
56391;SDS011;42289;53.582;9.714;2022-10-31T10:32:09;50.45;;;23.00;;
56391;SDS011;42289;53.582;9.714;2022-10-31T10:34:43;52.03;;;24.33;;
56391;SDS011;42289;53.582;9.714;2022-10-31T10:37:15;49.58;;;23.15;;
56391;SDS011;42289;53.582;9.714;2022-10-31T10:39:49;56.65;;;22.05;;
56391;SDS011;42289;53.582;9.714;2022-10-31T10:42:19;50.17;;;22.52;;
56391;SDS011;42289;53.582;9.714;2022-10-31T10:45:06;44.63;;;20.35;;
56391;SDS011;42289;53.582;9.714;2022-10-31T10:47:59;42.57;;;21.20;;
56391;SDS011;42289;53.582;9.714;2022-10-31T10:50:41;42.20;;;20.25;;
56391;SDS011;42289;53.582;9.714;2022-10-31T10:53:15;38.92;;;20.13;;
56391;SDS011;42289;53.582;9.714;2022-10-31T10:55:58;39.72;;;20.02;;
56391;SDS011;42289;53.582;9.714;2022-10-31T10:58:32;36.40;;;17.92;;
56391;SDS011;42289;53.582;9.714;2022-10-31T11:00:58;43.08;;;20.10;;
56391;SDS011;42289;53.582;9.714;2022-10-31T11:03:25;38.90;;;20.23;;
56391;SDS011;42289;53.582;9.714;2022-10-31T11:05:53;37.20;;;18.70;;
56391;SDS011;42289;53.582;9.714;2022-10-31T11:08:24;38.67;;;19.38;;
56391;SDS011;42289;53.582;9.714;2022-10-31T11:10:56;27.98;;;13.05;;
56391;SDS011;42289;53.582;9.714;2022-10-31T11:13:24;30.63;;;14.32;;
56391;SDS011;42289;53.582;9.714;2022-10-31T11:15:53;30.90;;;14.85;;
56391;SDS011;42289;53.582;9.714;2022-10-31T11:18:24;27.05;;;14.85;;
56391;SDS011;42289;53.582;9.714;2022-10-31T11:20:53;33.63;;;16.80;;
56391;SDS011;42289;53.582;9.714;2022-10-31T11:23:22;30.45;;;16.52;;
56391;SDS011;42289;53.582;9.714;2022-10-31T11:25:51;31.60;;;17.20;;
56391;SDS011;42289;53.582;9.714;2022-10-31T11:28:19;31.75;;;14.40;;
56391;SDS011;42289;53.582;9.714;2022-10-31T11:30:47;33.88;;;15.95;;
56391;SDS011;42289;53.582;9.714;2022-10-31T11:33:16;30.90;;;14.88;;
56391;SDS011;42289;53.582;9.714;2022-10-31T11:35:47;34.90;;;16.63;;
56391;SDS011;42289;53.582;9.714;2022-10-31T11:38:17;33.42;;;14.25;;
56391;SDS011;42289;53.582;9.714;2022-10-31T11:40:56;27.27;;;13.95;;
56391;SDS011;42289;53.582;9.714;2022-10-31T11:43:24;28.90;;;14.35;;
56391;SDS011;42289;53.582;9.714;2022-10-31T11:45:52;27.05;;;14.15;;
56391;SDS011;42289;53.582;9.714;2022-10-31T11:48:19;29.27;;;13.65;;
56391;SDS011;42289;53.582;9.714;2022-10-31T11:50:49;28.95;;;14.23;;
56391;SDS011;42289;53.582;9.714;2022-10-31T11:53:20;31.02;;;14.52;;
56391;SDS011;42289;53.582;9.714;2022-10-31T11:58:26;25.85;;;11.90;;
56391;SDS011;42289;53.582;9.714;2022-10-31T12:00:53;25.85;;;12.88;;
56391;SDS011;42289;53.582;9.714;2022-10-31T12:03:27;28.80;;;14.82;;
56391;SDS011;42289;53.582;9.714;2022-10-31T12:06:02;27.65;;;13.48;;
56391;SDS011;42289;53.582;9.714;2022-10-31T12:08:33;30.08;;;15.10;;
56391;SDS011;42289;53.582;9.714;2022-10-31T12:11:03;27.13;;;13.55;;
56391;SDS011;42289;53.582;9.714;2022-10-31T12:13:37;26.10;;;13.23;;
56391;SDS011;42289;53.582;9.714;2022-10-31T12:16:12;28.13;;;14.63;;
56391;SDS011;42289;53.582;9.714;2022-10-31T12:18:50;30.13;;;14.77;;
56391;SDS011;42289;53.582;9.714;2022-10-31T12:21:28;31.65;;;16.10;;
56391;SDS011;42289;53.582;9.714;2022-10-31T12:24:08;29.25;;;14.55;;
56391;SDS011;42289;53.582;9.714;2022-10-31T12:26:42;30.20;;;15.48;;
56391;SDS011;42289;53.582;9.714;2022-10-31T12:29:26;29.23;;;15.43;;
56391;SDS011;42289;53.582;9.714;2022-10-31T12:32:05;26.98;;;13.45;;
56391;SDS011;42289;53.582;9.714;2022-10-31T12:37:25;29.63;;;14.32;;
56391;SDS011;42289;53.582;9.714;2022-10-31T12:40:03;28.08;;;13.43;;
56391;SDS011;42289;53.582;9.714;2022-10-31T12:42:49;30.15;;;15.05;;
56391;SDS011;42289;53.582;9.714;2022-10-31T12:45:34;30.48;;;14.70;;
56391;SDS011;42289;53.582;9.714;2022-10-31T12:48:30;31.10;;;17.10;;
56391;SDS011;42289;53.582;9.714;2022-10-31T12:51:07;32.10;;;17.63;;
56391;SDS011;42289;53.582;9.714;2022-10-31T12:53:45;33.53;;;16.58;;
56391;SDS011;42289;53.582;9.714;2022-10-31T12:56:30;30.93;;;15.70;;
56391;SDS011;42289;53.582;9.714;2022-10-31T12:59:07;29.50;;;15.30;;
56391;SDS011;42289;53.582;9.714;2022-10-31T13:01:38;30.45;;;15.00;;
56391;SDS011;42289;53.582;9.714;2022-10-31T13:04:11;28.27;;;14.65;;
56391;SDS011;42289;53.582;9.714;2022-10-31T13:06:42;30.65;;;15.05;;
56391;SDS011;42289;53.582;9.714;2022-10-31T13:09:13;26.23;;;14.35;;
56391;SDS011;42289;53.582;9.714;2022-10-31T13:11:47;27.75;;;14.23;;
56391;SDS011;42289;53.582;9.714;2022-10-31T13:14:21;25.33;;;13.05;;
56391;SDS011;42289;53.582;9.714;2022-10-31T13:16:52;20.75;;;11.80;;
56391;SDS011;42289;53.582;9.714;2022-10-31T13:19:22;19.67;;;11.43;;
56391;SDS011;42289;53.582;9.714;2022-10-31T13:21:53;23.35;;;12.38;;
56391;SDS011;42289;53.582;9.714;2022-10-31T13:24:26;25.10;;;12.45;;
56391;SDS011;42289;53.582;9.714;2022-10-31T13:27:01;20.55;;;12.05;;
56391;SDS011;42289;53.582;9.714;2022-10-31T13:29:36;26.30;;;14.75;;
56391;SDS011;42289;53.582;9.714;2022-10-31T13:32:06;25.70;;;13.05;;
56391;SDS011;42289;53.582;9.714;2022-10-31T13:34:34;23.08;;;12.15;;
56391;SDS011;42289;53.582;9.714;2022-10-31T13:37:05;25.00;;;12.90;;
56391;SDS011;42289;53.582;9.714;2022-10-31T13:39:44;21.20;;;12.35;;
56391;SDS011;42289;53.582;9.714;2022-10-31T13:42:19;25.02;;;12.50;;
56391;SDS011;42289;53.582;9.714;2022-10-31T13:44:58;24.73;;;13.60;;
56391;SDS011;42289;53.582;9.714;2022-10-31T13:47:37;21.70;;;12.40;;
56391;SDS011;42289;53.582;9.714;2022-10-31T13:50:04;23.10;;;12.45;;
56391;SDS011;42289;53.582;9.714;2022-10-31T13:52:44;23.02;;;11.93;;
56391;SDS011;42289;53.582;9.714;2022-10-31T13:58:04;23.77;;;12.73;;
56391;SDS011;42289;53.582;9.714;2022-10-31T14:00:45;27.13;;;13.07;;
56391;SDS011;42289;53.582;9.714;2022-10-31T14:03:16;21.33;;;12.50;;
56391;SDS011;42289;53.582;9.714;2022-10-31T14:05:51;24.60;;;13.07;;
56391;SDS011;42289;53.582;9.714;2022-10-31T14:08:20;25.27;;;12.57;;
56391;SDS011;42289;53.582;9.714;2022-10-31T14:10:49;26.58;;;13.82;;
56391;SDS011;42289;53.582;9.714;2022-10-31T14:13:20;27.23;;;13.85;;
56391;SDS011;42289;53.582;9.714;2022-10-31T14:15:53;31.00;;;15.82;;
56391;SDS011;42289;53.582;9.714;2022-10-31T14:18:22;35.10;;;16.50;;
56391;SDS011;42289;53.582;9.714;2022-10-31T14:20:50;38.60;;;18.38;;
56391;SDS011;42289;53.582;9.714;2022-10-31T14:23:31;45.72;;;22.17;;
56391;SDS011;42289;53.582;9.714;2022-10-31T14:26:08;48.63;;;23.95;;
56391;SDS011;42289;53.582;9.714;2022-10-31T14:28:46;46.85;;;23.15;;
56391;SDS011;42289;53.582;9.714;2022-10-31T14:31:27;44.95;;;23.30;;
56391;SDS011;42289;53.582;9.714;2022-10-31T14:33:58;49.00;;;23.92;;
56391;SDS011;42289;53.582;9.714;2022-10-31T14:36:26;50.05;;;24.90;;
56391;SDS011;42289;53.582;9.714;2022-10-31T14:39:04;57.28;;;28.05;;
56391;SDS011;42289;53.582;9.714;2022-10-31T14:41:45;52.53;;;25.40;;
56391;SDS011;42289;53.582;9.714;2022-10-31T14:44:29;53.35;;;24.77;;
56391;SDS011;42289;53.582;9.714;2022-10-31T14:47:10;54.40;;;25.63;;
56391;SDS011;42289;53.582;9.714;2022-10-31T14:49:55;48.58;;;24.92;;
56391;SDS011;42289;53.582;9.714;2022-10-31T14:52:34;55.13;;;27.50;;
56391;SDS011;42289;53.582;9.714;2022-10-31T14:55:02;45.95;;;24.98;;
56391;SDS011;42289;53.582;9.714;2022-10-31T14:57:34;47.35;;;24.80;;
56391;SDS011;42289;53.582;9.714;2022-10-31T15:00:05;49.05;;;24.67;;